Time;durP1;ratioP1;P1;durP2;ratioP2;P2;SDS_P1;SDS_P2;PMS_P1;PMS_P2;Temp;Humidity;BMP_temperature;BMP_pressure;BME280_temperature;BME280_humidity;BME280_pressure;Samples;Min_cycle;Max_cycle;Signal;HPM_P1;HPM_P2
2022/07/17 00:02:01;;;;;;;1.00;0.90;;;14.20;1.10;;;;;;5104918;27;34155;-78
2022/07/17 00:04:27;;;;;;;3.03;0.98;;;14.20;1.20;;;;;;5050372;27;35824;-77
2022/07/17 00:06:53;;;;;;;2.45;1.08;;;14.10;1.20;;;;;;5088893;27;34479;-77
2022/07/17 00:09:19;;;;;;;1.33;1.10;;;14.10;1.30;;;;;;5090773;27;34331;-77
2022/07/17 00:11:45;;;;;;;2.70;1.10;;;14.00;1.30;;;;;;5005745;28;34204;-77
2022/07/17 00:14:11;;;;;;;1.67;1.20;;;14.00;1.30;;;;;;5089139;27;36627;-77
2022/07/17 00:16:43;;;;;;;1.20;0.95;;;14.00;1.40;;;;;;5035273;28;34376;-77
2022/07/17 00:19:40;;;;;;;1.25;1.00;;;13.90;2.90;;;;;;5003003;28;34230;-77
2022/07/17 00:22:06;;;;;;;1.30;1.02;;;13.90;4.70;;;;;;5005845;28;34210;-77
2022/07/17 00:24:37;;;;;;;1.60;1.45;;;13.90;1.60;;;;;;5002135;28;35676;-77
2022/07/17 00:27:03;;;;;;;1.13;1.02;;;13.80;3.20;;;;;;5002459;28;34310;-77
2022/07/17 00:29:29;;;;;;;2.95;1.25;;;13.80;1.70;;;;;;4985522;28;34250;-76
2022/07/17 00:31:55;;;;;;;3.15;0.77;;;13.70;1.70;;;;;;5078521;27;34238;-76
2022/07/17 00:34:22;;;;;;;0.98;0.93;;;13.70;1.80;;;;;;5054442;27;36015;-77
2022/07/17 00:36:47;;;;;;;1.52;1.10;;;13.60;1.80;;;;;;5063525;27;34339;-77
2022/07/17 00:39:14;;;;;;;3.83;1.27;;;13.60;1.90;;;;;;5030408;27;34056;-76
2022/07/17 00:41:40;;;;;;;2.25;1.13;;;13.50;2.10;;;;;;5098994;27;34068;-77
2022/07/17 00:44:08;;;;;;;2.25;1.20;;;13.40;2.10;;;;;;5122560;27;36648;-76
2022/07/17 00:46:34;;;;;;;2.17;1.08;;;13.40;2.20;;;;;;5122519;27;34182;-76
2022/07/17 00:49:04;;;;;;;1.63;1.00;;;13.30;2.20;;;;;;5106672;28;34338;-77
2022/07/17 00:51:30;;;;;;;1.88;1.10;;;13.20;3.20;;;;;;5141066;27;34498;-76
2022/07/17 00:53:58;;;;;;;1.48;1.17;;;13.20;2.50;;;;;;5125806;27;36532;-77
2022/07/17 00:57:16;;;;;;;1.25;0.90;;;13.10;2.70;;;;;;5125795;27;34199;-76
2022/07/17 00:59:42;;;;;;;1.50;0.95;;;13.10;6.00;;;;;;5125555;27;34300;-76
2022/07/17 01:02:11;;;;;;;1.50;1.10;;;12.90;2.70;;;;;;5090763;27;34682;-76
2022/07/17 01:04:38;;;;;;;1.20;0.82;;;12.90;3.30;;;;;;5125469;27;36622;-76
2022/07/17 01:07:32;;;;;;;2.03;1.00;;;12.90;2.90;;;;;;5125777;27;34181;-76
2022/07/17 01:09:58;;;;;;;1.35;1.20;;;12.80;6.90;;;;;;5122895;27;34410;-76
2022/07/17 01:12:25;;;;;;;1.23;1.10;;;12.80;3.00;;;;;;5105780;28;34481;-76
2022/07/17 01:15:00;;;;;;;1.27;0.90;;;12.80;3.10;;;;;;5153668;27;36098;-77
2022/07/17 01:17:26;;;;;;;1.83;1.10;;;12.80;5.00;;;;;;5136206;27;34209;-77
2022/07/17 01:19:52;;;;;;;1.48;1.00;;;12.70;3.20;;;;;;5146325;27;34258;-76
2022/07/17 01:22:19;;;;;;;1.25;1.10;;;12.60;3.30;;;;;;5180794;27;34381;-76
2022/07/17 01:24:45;;;;;;;3.22;0.95;;;12.50;3.50;;;;;;5148670;27;36722;-76
2022/07/17 01:27:31;;;;;;;2.88;1.00;;;12.40;3.60;;;;;;5177798;27;34212;-76
2022/07/17 01:33:13;;;;;;;1.05;0.95;;;12.30;7.70;;;;;;5120336;27;34768;-76
2022/07/17 01:35:39;;;;;;;1.17;0.90;;;12.20;3.90;;;;;;5126823;27;34944;-76
2022/07/17 01:38:21;;;;;;;1.63;0.90;;;12.20;3.80;;;;;;5105260;27;34213;-76
2022/07/17 01:40:47;;;;;;;2.17;1.10;;;12.20;7.20;;;;;;5122248;27;34108;-76
2022/07/17 01:43:31;;;;;;;5.78;1.25;;;12.10;3.90;;;;;;5127738;27;34154;-76
2022/07/17 01:45:57;;;;;;;1.00;0.90;;;12.10;7.60;;;;;;5107225;27;36016;-76
2022/07/17 01:48:27;;;;;;;1.05;0.98;;;12.00;4.20;;;;;;5096487;27;34314;-76
2022/07/17 01:50:54;;;;;;;1.00;1.00;;;12.00;4.90;;;;;;5070590;28;34315;-76
2022/07/17 01:53:19;;;;;;;1.80;0.90;;;11.90;4.30;;;;;;5135324;27;34162;-77
2022/07/17 01:55:46;;;;;;;1.70;1.02;;;11.80;4.40;;;;;;5107987;27;36388;-77
2022/07/17 01:58:52;;;;;;;0.93;0.93;;;11.80;4.50;;;;;;5118623;27;34336;-76
2022/07/17 02:01:36;;;;;;;1.92;1.10;;;11.80;7.70;;;;;;5068877;28;34064;-76
2022/07/17 02:04:21;;;;;;;2.72;1.10;;;11.80;7.50;;;;;;5053879;27;34125;-76
2022/07/17 02:09:13;;;;;;;0.93;0.82;;;11.60;4.60;;;;;;5056799;27;56720;-76
2022/07/17 02:12:04;;;;;;;1.70;1.00;;;11.60;4.70;;;;;;5125604;27;34262;-76
2022/07/17 02:14:36;;;;;;;2.47;0.90;;;11.60;8.30;;;;;;5142100;27;34068;-77
2022/07/17 02:17:02;;;;;;;1.48;1.10;;;11.50;6.10;;;;;;5144906;27;36707;-76
2022/07/17 02:19:28;;;;;;;1.63;0.88;;;11.50;4.90;;;;;;5064978;27;34200;-76
2022/07/17 02:21:54;;;;;;;0.82;0.82;;;11.40;4.80;;;;;;5039358;28;34148;-76
2022/07/17 02:24:29;;;;;;;1.10;1.00;;;11.30;4.90;;;;;;5136485;27;34158;-76
2022/07/17 02:26:55;;;;;;;10.10;1.10;;;11.30;7.10;;;;;;5106696;27;35644;-77
2022/07/17 02:29:21;;;;;;;1.58;1.02;;;11.30;5.00;;;;;;5089883;28;34155;-76
2022/07/17 02:31:47;;;;;;;1.40;0.85;;;11.20;5.10;;;;;;5133502;27;34016;-76
2022/07/17 02:34:13;;;;;;;1.98;1.02;;;11.20;5.20;;;;;;5145001;27;34182;-76
2022/07/17 02:36:54;;;;;;;1.23;1.13;;;11.20;5.30;;;;;;5127155;27;35869;-77
2022/07/17 02:39:19;;;;;;;1.92;1.10;;;11.20;7.70;;;;;;5130289;27;34434;-76
2022/07/17 02:41:45;;;;;;;1.45;1.15;;;11.10;5.30;;;;;;5111787;27;34321;-76
2022/07/17 02:44:11;;;;;;;1.25;1.13;;;11.10;5.40;;;;;;5115525;27;34456;-76
2022/07/17 02:46:37;;;;;;;1.80;0.93;;;11.00;5.40;;;;;;5124073;27;36047;-76
2022/07/17 02:49:03;;;;;;;3.08;1.15;;;11.00;5.40;;;;;;5144253;27;34089;-77
2022/07/17 02:51:29;;;;;;;1.40;1.20;;;11.00;5.50;;;;;;5115187;27;34308;-76
2022/07/17 02:53:55;;;;;;;3.22;0.98;;;11.00;5.50;;;;;;5061100;28;34148;-76
2022/07/17 02:56:30;;;;;;;1.33;0.98;;;10.90;5.60;;;;;;5061106;28;34884;-76
2022/07/17 02:59:14;;;;;;;1.90;1.00;;;10.90;7.50;;;;;;5103866;27;34201;-76
2022/07/17 03:01:40;;;;;;;1.63;1.10;;;10.80;8.80;;;;;;5113925;27;34205;-76
2022/07/17 03:04:06;;;;;;;4.40;1.45;;;10.80;5.90;;;;;;5102835;27;34316;-77
2022/07/17 03:06:31;;;;;;;1.20;1.10;;;10.70;6.00;;;;;;5126616;27;35904;-77
2022/07/17 03:08:57;;;;;;;1.17;0.88;;;10.70;6.20;;;;;;5094465;27;34189;-77
2022/07/17 03:11:46;;;;;;;1.25;1.10;;;10.60;6.10;;;;;;5071864;27;35048;-76
2022/07/17 03:14:12;;;;;;;1.27;0.80;;;10.70;9.30;;;;;;5029305;28;34451;-76
2022/07/17 03:16:38;;;;;;;5.45;1.33;;;10.60;6.10;;;;;;5036418;27;35659;-76
2022/07/17 03:19:21;;;;;;;1.70;1.20;;;10.60;6.20;;;;;;5119307;27;34068;-76
2022/07/17 03:21:47;;;;;;;2.85;1.38;;;10.60;9.70;;;;;;5089057;28;34348;-76
2022/07/17 03:24:53;;;;;;;2.20;1.08;;;10.50;6.20;;;;;;5126084;27;34368;-76
2022/07/17 03:28:14;;;;;;;0.80;0.80;;;10.50;9.30;;;;;;5023752;27;34436;-77
2022/07/17 03:31:16;;;;;;;1.10;0.90;;;10.50;9.80;;;;;;5135165;27;34282;-76
2022/07/17 03:33:42;;;;;;;1.58;1.10;;;10.40;9.70;;;;;;5134318;27;34169;-76
2022/07/17 03:39:32;;;;;;;2.13;1.10;;;10.40;9.20;;;;;;5052554;27;34443;-76
2022/07/17 03:42:25;;;;;;;1.95;1.00;;;10.30;9.90;;;;;;5024988;28;34099;-76
2022/07/17 03:44:51;;;;;;;0.93;0.85;;;10.30;9.60;;;;;;5025890;28;34301;-77
2022/07/17 03:47:17;;;;;;;1.20;1.10;;;10.20;6.50;;;;;;5008413;28;34223;-76
2022/07/17 03:49:49;;;;;;;2.75;1.02;;;10.30;6.60;;;;;;5032664;28;34586;-77
2022/07/17 03:52:16;;;;;;;1.10;1.00;;;10.30;7.90;;;;;;5041400;28;34195;-77
2022/07/17 03:54:57;;;;;;;1.10;1.00;;;10.20;6.70;;;;;;5029679;28;34384;-77
2022/07/17 03:58:08;;;;;;;0.88;0.88;;;10.20;9.00;;;;;;5074380;28;34544;-77
2022/07/17 04:00:34;;;;;;;0.90;0.90;;;10.20;9.60;;;;;;5026210;28;35980;-77
2022/07/17 04:03:01;;;;;;;2.22;0.98;;;10.20;6.60;;;;;;5063052;27;34367;-77
2022/07/17 04:06:07;;;;;;;1.83;1.13;;;10.20;6.70;;;;;;5085481;27;34156;-77
2022/07/17 04:08:33;;;;;;;2.60;1.00;;;10.20;9.10;;;;;;5029201;27;34115;-77
2022/07/17 04:10:59;;;;;;;1.40;0.95;;;10.20;6.70;;;;;;5111679;27;36503;-77
2022/07/17 04:13:25;;;;;;;2.70;1.10;;;10.10;6.80;;;;;;5072918;27;34274;-77
2022/07/17 04:16:31;;;;;;;1.20;1.10;;;10.10;6.80;;;;;;5099607;27;34297;-77
2022/07/17 04:19:33;;;;;;;1.67;1.23;;;10.10;10.20;;;;;;5062759;28;34398;-77
2022/07/17 04:22:15;;;;;;;1.02;1.00;;;10.10;10.10;;;;;;5052071;28;34925;-77
2022/07/17 04:25:15;;;;;;;2.60;1.30;;;10.10;9.80;;;;;;5005585;28;34372;-77
2022/07/17 04:28:18;;;;;;;1.38;1.10;;;10.10;10.70;;;;;;5038766;28;34143;-77
2022/07/17 04:31:09;;;;;;;1.33;1.10;;;10.10;10.70;;;;;;5025771;28;34033;-77
2022/07/17 04:33:35;;;;;;;1.30;0.93;;;10.10;10.50;;;;;;5044369;27;35840;-77
2022/07/17 04:36:01;;;;;;;1.73;1.10;;;10.10;7.10;;;;;;5040210;28;34057;-77
2022/07/17 04:38:26;;;;;;;2.97;1.17;;;10.10;7.10;;;;;;5038732;27;34461;-77
2022/07/17 04:40:52;;;;;;;1.55;1.20;;;10.10;7.10;;;;;;5111191;27;34135;-77
2022/07/17 04:43:19;;;;;;;2.13;1.15;;;10.10;7.10;;;;;;5055374;27;34800;-77
2022/07/17 04:45:45;;;;;;;1.83;1.17;;;10.20;7.20;;;;;;5038021;28;34278;-77
2022/07/17 04:48:11;;;;;;;1.95;1.10;;;10.20;7.10;;;;;;5061356;27;34203;-77
2022/07/17 04:50:37;;;;;;;1.10;1.00;;;10.20;7.30;;;;;;5100043;27;34395;-77
2022/07/17 04:53:25;;;;;;;1.55;1.33;;;10.20;7.30;;;;;;5077886;27;35598;-77
2022/07/17 04:55:51;;;;;;;0.90;0.90;;;10.30;10.40;;;;;;5041560;28;34985;-77
2022/07/17 04:58:16;;;;;;;1.25;1.00;;;10.30;7.30;;;;;;5056769;27;34288;-77
2022/07/17 05:00:42;;;;;;;2.33;1.35;;;10.30;7.40;;;;;;5032497;28;34105;-77
2022/07/17 05:03:08;;;;;;;2.22;1.30;;;10.40;7.40;;;;;;5043531;28;35407;-77
2022/07/17 05:05:35;;;;;;;1.63;1.20;;;10.40;7.30;;;;;;5033483;28;34135;-77
2022/07/17 05:08:01;;;;;;;2.88;1.10;;;10.40;7.40;;;;;;5037266;28;34452;-77
2022/07/17 05:10:28;;;;;;;2.83;1.20;;;10.50;7.60;;;;;;5031267;28;34547;-77
2022/07/17 05:13:19;;;;;;;1.88;1.25;;;10.50;7.80;;;;;;5051367;28;35683;-77
2022/07/17 05:15:45;;;;;;;2.75;1.33;;;10.60;10.70;;;;;;5049313;27;34574;-77
2022/07/17 05:18:11;;;;;;;1.60;1.33;;;10.60;7.60;;;;;;5076728;27;34446;-77
2022/07/17 05:20:53;;;;;;;3.08;1.23;;;10.70;7.70;;;;;;5035418;27;34081;-77
2022/07/17 05:23:40;;;;;;;3.10;1.60;;;10.90;11.40;;;;;;5022682;28;35635;-77
2022/07/17 05:26:06;;;;;;;2.63;1.40;;;11.30;11.00;;;;;;5009839;28;34301;-77
2022/07/17 05:28:32;;;;;;;11.02;2.00;;;12.10;6.90;;;;;;5061754;27;33857;-77
2022/07/17 05:30:58;;;;;;;3.40;1.73;;;13.10;5.70;;;;;;5071220;27;34462;-77
2022/07/17 05:33:24;;;;;;;1.63;1.13;;;14.30;4.20;;;;;;5018047;28;35536;-77
2022/07/17 05:35:50;;;;;;;2.75;1.40;;;15.50;2.70;;;;;;5019464;27;33820;-78
2022/07/17 05:38:31;;;;;;;13.18;1.95;;;16.60;1.50;;;;;;5019210;28;34140;-79
2022/07/17 05:41:17;;;;;;;6.80;1.23;;;17.90;1.60;;;;;;5034765;27;34347;-78
2022/07/17 05:44:04;;;;;;;1.77;1.30;;;18.90;1.00;;;;;;5043729;27;35666;-78
2022/07/17 05:46:30;;;;;;;1.75;1.60;;;19.80;1.00;;;;;;5048960;27;35531;-78
2022/07/17 05:48:56;;;;;;;1.77;1.40;;;20.40;1.00;;;;;;5022272;27;34319;-78
2022/07/17 05:51:22;;;;;;;1.20;1.10;;;21.10;1.00;;;;;;5008819;28;34134;-78
2022/07/17 05:53:49;;;;;;;1.30;1.02;;;21.70;1.00;;;;;;5038651;27;35865;-78
2022/07/17 05:56:15;;;;;;;1.23;0.90;;;22.30;1.00;;;;;;5010472;28;34383;-78
2022/07/17 05:58:41;;;;;;;2.97;1.30;;;22.70;1.00;;;;;;5025037;28;35362;-78
2022/07/17 06:01:07;;;;;;;3.05;1.00;;;23.30;1.00;;;;;;5034518;28;34186;-78
2022/07/17 06:03:33;;;;;;;1.50;1.17;;;23.80;1.00;;;;;;5035615;27;35455;-78
2022/07/17 06:05:59;;;;;;;2.78;1.30;;;24.30;1.00;;;;;;5051013;27;34742;-78
2022/07/17 06:08:31;;;;;;;2.25;1.20;;;24.80;1.00;;;;;;5022384;28;34211;-79
2022/07/17 06:10:57;;;;;;;20.55;2.08;;;25.30;1.00;;;;;;5002194;28;34189;-78
2022/07/17 06:13:23;;;;;;;1.30;1.05;;;25.60;1.00;;;;;;5004505;28;35913;-78
2022/07/17 06:15:49;;;;;;;1.95;1.25;;;25.80;1.00;;;;;;5017436;28;34343;-79
2022/07/17 06:18:16;;;;;;;1.35;1.00;;;26.10;1.00;;;;;;5025638;27;34224;-79
2022/07/17 06:20:43;;;;;;;2.45;1.10;;;26.40;1.00;;;;;;5026318;28;35502;-80
2022/07/17 06:23:09;;;;;;;2.00;1.05;;;26.70;1.00;;;;;;5020041;27;35430;-79
2022/07/17 06:25:36;;;;;;;1.45;1.10;;;26.90;1.00;;;;;;5028199;27;34253;-79
2022/07/17 06:28:02;;;;;;;1.85;1.27;;;27.20;1.00;;;;;;5004385;28;35529;-79
2022/07/17 06:30:31;;;;;;;1.77;1.10;;;27.40;1.00;;;;;;5003008;28;34097;-78
2022/07/17 06:32:57;;;;;;;1.20;1.10;;;27.60;1.00;;;;;;5018954;28;35506;-80
2022/07/17 06:35:23;;;;;;;2.08;1.20;;;27.80;1.00;;;;;;5011405;28;34147;-80
2022/07/17 06:37:49;;;;;;;1.30;1.00;;;27.90;1.00;;;;;;5005515;28;34136;-79
2022/07/17 06:40:15;;;;;;;10.25;1.30;;;28.00;1.00;;;;;;4987934;28;34288;-79
2022/07/17 06:42:41;;;;;;;1.00;0.80;;;28.20;1.00;;;;;;5015784;27;35550;-78
2022/07/17 06:45:08;;;;;;;2.80;0.90;;;28.40;1.00;;;;;;5008319;28;34294;-78
2022/07/17 06:47:34;;;;;;;2.08;1.20;;;28.50;1.00;;;;;;5005090;28;34785;-78
2022/07/17 06:50:01;;;;;;;1.58;1.10;;;28.70;1.00;;;;;;4997899;28;34318;-78
2022/07/17 06:52:27;;;;;;;1.58;0.90;;;29.00;1.00;;;;;;5014050;28;35609;-78
2022/07/17 06:54:53;;;;;;;3.42;1.10;;;29.20;1.00;;;;;;5009371;28;34220;-78
2022/07/17 06:57:19;;;;;;;1.20;1.00;;;29.30;1.00;;;;;;4990963;28;34310;-78
2022/07/17 06:59:48;;;;;;;1.13;1.00;;;29.50;1.00;;;;;;5002302;28;34133;-78
2022/07/17 07:02:22;;;;;;;1.10;1.00;;;29.80;1.00;;;;;;5046776;28;36033;-79
2022/07/17 07:04:53;;;;;;;1.05;0.70;;;29.90;1.00;;;;;;4990622;28;34216;-79
2022/07/17 07:07:19;;;;;;;1.27;0.80;;;30.10;1.00;;;;;;5009906;27;34456;-78
2022/07/17 07:09:45;;;;;;;1.23;0.82;;;30.00;1.00;;;;;;5001626;28;34094;-78
2022/07/17 07:12:11;;;;;;;1.15;0.70;;;29.90;1.00;;;;;;4991528;28;35573;-77
2022/07/17 07:14:37;;;;;;;1.73;0.95;;;29.90;1.00;;;;;;4993940;28;34612;-78
2022/07/17 07:17:02;;;;;;;2.70;0.95;;;29.90;1.00;;;;;;4987637;28;34259;-78
2022/07/17 07:19:29;;;;;;;3.55;0.82;;;29.80;1.00;;;;;;4993504;28;34685;-77
2022/07/17 07:21:55;;;;;;;1.80;0.90;;;29.80;1.00;;;;;;4999586;28;36085;-77
2022/07/17 07:24:40;;;;;;;2.67;0.93;;;30.00;1.00;;;;;;5020774;28;33768;-77
2022/07/17 07:27:06;;;;;;;2.80;1.05;;;30.20;1.00;;;;;;4988812;28;34423;-77
2022/07/17 07:29:32;;;;;;;2.63;0.65;;;30.20;1.00;;;;;;5012885;28;34354;-78
2022/07/17 07:31:57;;;;;;;1.33;0.73;;;30.10;1.00;;;;;;4996980;28;36404;-78
2022/07/17 07:34:24;;;;;;;5.80;0.80;;;30.10;1.00;;;;;;5017436;27;34230;-77
2022/07/17 07:36:50;;;;;;;2.25;0.80;;;30.20;1.00;;;;;;5049431;27;34407;-78
2022/07/17 07:39:16;;;;;;;0.70;0.70;;;30.30;1.00;;;;;;5022482;27;34499;-78
2022/07/17 07:41:42;;;;;;;4.22;0.98;;;30.50;1.00;;;;;;5049379;27;35468;-78
2022/07/17 07:44:08;;;;;;;1.25;0.80;;;30.50;1.00;;;;;;5021202;28;34307;-77
2022/07/17 07:46:34;;;;;;;4.53;0.93;;;30.40;1.00;;;;;;5018900;28;34531;-77
2022/07/17 07:49:01;;;;;;;3.40;0.85;;;30.10;1.00;;;;;;5058585;27;34250;-79
2022/07/17 07:51:27;;;;;;;1.48;0.90;;;30.10;1.00;;;;;;5029320;27;36434;-78
2022/07/17 07:53:54;;;;;;;1.33;1.00;;;30.20;1.00;;;;;;5028868;28;34590;-80
2022/07/17 07:56:21;;;;;;;2.03;0.90;;;30.50;1.00;;;;;;5050085;27;34167;-79
2022/07/17 07:58:47;;;;;;;1.70;0.65;;;30.70;1.00;;;;;;5027305;28;34231;-78
2022/07/17 08:01:14;;;;;;;2.85;0.80;;;30.90;1.00;;;;;;5000888;28;35820;-79
2022/07/17 08:03:40;;;;;;;1.65;0.70;;;31.10;1.00;;;;;;5036594;27;34449;-78
2022/07/17 08:06:06;;;;;;;0.90;0.60;;;31.10;1.00;;;;;;5018962;28;34277;-78
2022/07/17 08:08:32;;;;;;;1.65;0.70;;;31.30;1.00;;;;;;5063391;27;34463;-78
2022/07/17 08:10:57;;;;;;;1.60;0.80;;;31.30;1.00;;;;;;5026914;27;35845;-78
2022/07/17 08:13:23;;;;;;;0.98;0.60;;;31.20;1.00;;;;;;5018017;27;34452;-78
2022/07/17 08:15:49;;;;;;;3.72;0.80;;;31.10;1.00;;;;;;5026597;28;34287;-77
2022/07/17 08:18:15;;;;;;;1.77;0.73;;;31.10;1.00;;;;;;5021299;28;34392;-78
2022/07/17 08:20:42;;;;;;;3.58;0.75;;;31.20;1.00;;;;;;5011165;28;35643;-80
2022/07/17 08:23:08;;;;;;;3.88;0.88;;;31.30;1.00;;;;;;5038690;27;34399;-77
2022/07/17 08:25:35;;;;;;;1.65;0.88;;;31.30;1.00;;;;;;5049196;28;34318;-77
2022/07/17 08:28:19;;;;;;;5.72;0.80;;;31.30;1.00;;;;;;5017416;28;34387;-77
2022/07/17 08:30:45;;;;;;;1.92;0.65;;;31.60;1.00;;;;;;5016824;28;36567;-78
2022/07/17 08:33:14;;;;;;;3.47;0.70;;;31.70;1.00;;;;;;5032072;27;34421;-78
2022/07/17 08:35:40;;;;;;;1.90;0.45;;;31.60;1.00;;;;;;5011859;27;34288;-77
2022/07/17 08:38:06;;;;;;;1.95;0.70;;;31.60;1.00;;;;;;5037676;28;34551;-78
2022/07/17 08:40:34;;;;;;;3.80;0.80;;;31.50;1.00;;;;;;5026313;28;35588;-77
2022/07/17 08:43:02;;;;;;;3.80;0.70;;;31.30;1.00;;;;;;5028942;28;34519;-78
2022/07/17 08:45:28;;;;;;;0.98;0.60;;;31.30;1.00;;;;;;5037763;27;34443;-77
2022/07/17 08:47:56;;;;;;;2.03;0.60;;;31.20;1.00;;;;;;5023449;27;34415;-78
2022/07/17 08:50:25;;;;;;;1.40;0.50;;;30.90;1.00;;;;;;5031159;27;35589;-77
2022/07/17 08:52:52;;;;;;;1.70;0.75;;;30.80;1.00;;;;;;5028128;28;34249;-78
2022/07/17 08:55:18;;;;;;;0.82;0.50;;;30.90;1.00;;;;;;5016185;27;34785;-77
2022/07/17 08:57:45;;;;;;;0.75;0.63;;;31.10;1.00;;;;;;5019392;27;34681;-77
2022/07/17 09:00:15;;;;;;;2.75;0.70;;;31.40;1.00;;;;;;5015755;28;35102;-77
2022/07/17 09:02:53;;;;;;;0.52;0.52;;;31.60;1.00;;;;;;5011974;28;34548;-79
2022/07/17 09:05:22;;;;;;;1.42;0.68;;;31.60;1.00;;;;;;5018088;27;34127;-78
2022/07/17 09:07:48;;;;;;;1.58;0.60;;;31.60;1.00;;;;;;4997063;28;34246;-77
2022/07/17 09:10:15;;;;;;;1.92;0.60;;;31.70;1.00;;;;;;5014940;28;34970;-78
2022/07/17 09:12:42;;;;;;;2.15;0.60;;;31.90;1.00;;;;;;5023698;27;34470;-78
2022/07/17 09:15:18;;;;;;;1.05;0.65;;;31.90;1.00;;;;;;5018332;28;34565;-76
2022/07/17 09:17:53;;;;;;;0.82;0.55;;;32.10;1.00;;;;;;5047758;27;34217;-78
2022/07/17 09:20:21;;;;;;;0.93;0.60;;;31.90;1.00;;;;;;5034258;28;35966;-77
2022/07/17 09:23:04;;;;;;;2.92;0.80;;;31.80;1.00;;;;;;5014055;28;34325;-77
2022/07/17 09:25:33;;;;;;;2.33;0.60;;;31.60;1.00;;;;;;5050523;28;34280;-79
2022/07/17 09:28:07;;;;;;;1.17;0.50;;;31.50;1.00;;;;;;5012733;28;34064;-79
2022/07/17 09:30:37;;;;;;;1.38;0.60;;;31.40;1.00;;;;;;5030103;28;35642;-79
2022/07/17 09:33:07;;;;;;;7.10;0.80;;;31.50;1.00;;;;;;5010473;28;34433;-77
2022/07/17 09:35:33;;;;;;;0.73;0.63;;;31.60;1.00;;;;;;5016560;27;35235;-77
2022/07/17 09:37:59;;;;;;;1.50;0.63;;;31.80;1.00;;;;;;4996283;28;34537;-79
2022/07/17 09:43:07;;;;;;;3.70;0.80;;;31.80;1.00;;;;;;5017214;28;34374;-78
2022/07/17 09:45:34;;;;;;;1.40;0.60;;;31.80;1.00;;;;;;5030097;28;34578;-78
2022/07/17 09:48:01;;;;;;;1.55;0.60;;;31.80;1.00;;;;;;5023442;28;34340;-78
2022/07/17 09:50:29;;;;;;;2.55;0.40;;;31.60;1.00;;;;;;5017564;27;35516;-75
2022/07/17 09:52:57;;;;;;;0.82;0.52;;;31.70;1.00;;;;;;5006379;28;34260;-77
2022/07/17 09:55:30;;;;;;;1.45;0.55;;;31.70;1.00;;;;;;5014524;28;34276;-78
2022/07/17 09:57:59;;;;;;;4.30;0.60;;;31.70;1.00;;;;;;4982558;28;34627;-77
2022/07/17 10:00:25;;;;;;;1.08;0.43;;;31.60;1.00;;;;;;5015437;28;36022;-78
2022/07/17 10:02:52;;;;;;;1.52;0.50;;;31.80;1.00;;;;;;5002757;28;34884;-77
2022/07/17 10:05:19;;;;;;;4.40;0.52;;;32.00;1.00;;;;;;5002520;28;34169;-79
2022/07/17 10:07:46;;;;;;;1.38;0.52;;;32.00;1.00;;;;;;5001482;28;35612;-79
2022/07/17 10:10:14;;;;;;;3.03;0.65;;;32.30;1.00;;;;;;4999550;28;36563;-79
2022/07/17 10:12:43;;;;;;;1.65;0.55;;;32.40;1.00;;;;;;5002190;28;34301;-78
2022/07/17 10:15:10;;;;;;;0.45;0.45;;;32.60;1.00;;;;;;5004061;28;34405;-78
2022/07/17 10:17:36;;;;;;;1.33;0.70;;;32.60;1.00;;;;;;4999983;28;34472;-76
2022/07/17 10:20:04;;;;;;;2.42;0.65;;;32.80;1.00;;;;;;5025192;28;34524;-79
2022/07/17 10:22:45;;;;;;;0.77;0.52;;;32.90;1.00;;;;;;5035574;27;34446;-80
2022/07/17 10:25:28;;;;;;;0.75;0.52;;;33.10;1.00;;;;;;5089244;27;34417;-78
2022/07/17 10:27:56;;;;;;;3.22;0.70;;;32.90;1.00;;;;;;5016207;28;34458;-77
2022/07/17 10:30:26;;;;;;;1.30;0.70;;;32.70;1.00;;;;;;5005709;28;36785;-76
2022/07/17 10:33:07;;;;;;;2.35;0.60;;;32.80;1.00;;;;;;5013398;27;34201;-76
2022/07/17 10:36:27;;;;;;;0.80;0.60;;;32.90;1.00;;;;;;5033533;28;34093;-76
2022/07/17 10:39:21;;;;;;;0.50;0.50;;;33.00;1.00;;;;;;5026712;27;34155;-77
2022/07/17 10:42:03;;;;;;;2.22;0.65;;;32.70;1.00;;;;;;5059975;28;36389;-79
2022/07/17 10:45:12;;;;;;;1.42;0.50;;;32.60;1.00;;;;;;5056730;27;34290;-77
2022/07/17 10:47:57;;;;;;;0.88;0.50;;;32.60;1.00;;;;;;5019986;28;34221;-77
2022/07/17 10:50:35;;;;;;;0.82;0.50;;;32.80;1.00;;;;;;5018219;28;34399;-77
2022/07/17 10:53:08;;;;;;;2.03;0.70;;;33.00;1.00;;;;;;5049278;27;35607;-77
2022/07/17 10:55:36;;;;;;;0.80;0.50;;;33.10;1.00;;;;;;5032387;27;34325;-78
2022/07/17 10:58:37;;;;;;;0.50;0.50;;;32.90;1.00;;;;;;5016129;27;34204;-77
2022/07/17 11:01:14;;;;;;;2.38;0.60;;;32.90;1.00;;;;;;5022050;28;34272;-77
2022/07/17 11:03:53;;;;;;;3.35;0.70;;;32.80;1.00;;;;;;5016324;28;35612;-77
2022/07/17 11:06:32;;;;;;;1.10;0.70;;;33.00;1.00;;;;;;5009596;28;34473;-77
2022/07/17 11:09:09;;;;;;;2.30;0.45;;;33.20;1.00;;;;;;4983491;28;35233;-77
2022/07/17 11:11:38;;;;;;;1.10;0.52;;;33.30;1.00;;;;;;5018869;27;34597;-79
2022/07/17 11:14:33;;;;;;;2.10;0.57;;;33.50;1.00;;;;;;5011558;27;35506;-78
2022/07/17 11:17:01;;;;;;;1.67;0.70;;;33.50;1.00;;;;;;5035590;27;34933;-76
2022/07/17 11:19:38;;;;;;;1.42;0.50;;;33.50;1.00;;;;;;5028032;27;34845;-76
2022/07/17 11:22:09;;;;;;;7.55;0.90;;;33.40;1.00;;;;;;5027448;27;34396;-77
2022/07/17 11:25:06;;;;;;;4.85;0.95;;;33.40;1.00;;;;;;5018600;27;35586;-79
2022/07/17 11:27:32;;;;;;;0.57;0.47;;;33.40;1.00;;;;;;5043693;28;34186;-78
2022/07/17 11:30:13;;;;;;;0.73;0.50;;;33.50;1.00;;;;;;5059274;27;34057;-79
2022/07/17 11:33:30;;;;;;;0.60;0.60;;;33.70;1.00;;;;;;5118419;27;34310;-79
2022/07/17 11:35:56;;;;;;;0.50;0.50;;;33.80;1.00;;;;;;5138562;27;35908;-78
2022/07/17 11:38:26;;;;;;;2.30;0.70;;;33.90;1.00;;;;;;5118184;27;34792;-77
2022/07/17 11:40:55;;;;;;;1.55;0.70;;;34.00;1.00;;;;;;5125183;27;34304;-80
2022/07/17 11:43:21;;;;;;;2.53;0.63;;;34.10;1.00;;;;;;5065922;27;34182;-79
2022/07/17 11:45:47;;;;;;;1.33;0.50;;;34.20;1.00;;;;;;5112037;27;34402;-78
2022/07/17 11:48:23;;;;;;;1.80;0.68;;;34.30;1.00;;;;;;5150337;27;34245;-78
2022/07/17 11:50:54;;;;;;;0.40;0.40;;;34.20;1.00;;;;;;5138177;27;34412;-76
2022/07/17 11:53:32;;;;;;;1.45;0.80;;;34.00;1.00;;;;;;5123213;27;34677;-77
2022/07/17 11:55:58;;;;;;;1.60;0.60;;;33.90;1.00;;;;;;5105865;27;35855;-78
2022/07/17 11:58:24;;;;;;;1.63;0.88;;;33.70;1.00;;;;;;5126739;27;34160;-77
2022/07/17 12:01:02;;;;;;;1.05;0.60;;;33.50;1.00;;;;;;5121116;27;34411;-77
2022/07/17 12:03:28;;;;;;;2.92;0.75;;;33.50;1.00;;;;;;5116566;27;34610;-77
2022/07/17 12:05:54;;;;;;;1.00;0.57;;;33.60;1.00;;;;;;5116561;27;35891;-76
2022/07/17 12:08:52;;;;;;;2.78;0.63;;;33.50;1.00;;;;;;5120871;27;34264;-75
2022/07/17 12:11:18;;;;;;;2.05;0.50;;;33.50;1.00;;;;;;5118410;27;35351;-76
2022/07/17 12:13:47;;;;;;;0.50;0.50;;;33.60;1.00;;;;;;5097620;27;34443;-76
2022/07/17 12:16:29;;;;;;;1.70;0.75;;;33.70;1.00;;;;;;5039603;27;35587;-77
2022/07/17 12:19:14;;;;;;;2.28;0.63;;;33.90;1.00;;;;;;5017769;28;34382;-75
2022/07/17 12:21:54;;;;;;;1.67;0.70;;;34.10;1.00;;;;;;5053810;27;34242;-76
2022/07/17 12:24:23;;;;;;;1.02;0.70;;;34.10;1.00;;;;;;5020895;28;34185;-75
2022/07/17 12:26:49;;;;;;;0.52;0.40;;;34.10;1.00;;;;;;5011983;28;35548;-76
2022/07/17 12:29:16;;;;;;;0.65;0.60;;;34.20;1.00;;;;;;5027993;27;34172;-76
2022/07/17 12:31:41;;;;;;;0.50;0.50;;;34.30;1.00;;;;;;5024241;27;34355;-78
2022/07/17 12:34:07;;;;;;;0.80;0.45;;;34.30;1.00;;;;;;5038155;28;34185;-76
2022/07/17 12:36:33;;;;;;;0.73;0.63;;;34.20;1.00;;;;;;5021491;27;35752;-76
2022/07/17 12:38:59;;;;;;;1.25;0.57;;;34.20;1.00;;;;;;5038512;28;34424;-78
2022/07/17 12:41:26;;;;;;;4.65;0.70;;;34.20;1.00;;;;;;5007985;28;34663;-77
2022/07/17 12:43:52;;;;;;;1.38;0.68;;;34.30;1.00;;;;;;5058806;27;34408;-77
2022/07/17 12:46:18;;;;;;;1.10;0.70;;;34.20;1.00;;;;;;5022307;27;35710;-77
2022/07/17 12:48:45;;;;;;;0.98;0.43;;;34.40;1.00;;;;;;5019084;28;33997;-77
2022/07/17 12:51:13;;;;;;;2.78;0.60;;;34.50;1.00;;;;;;5030003;28;34343;-77
2022/07/17 12:53:41;;;;;;;0.70;0.70;;;34.60;1.00;;;;;;5075825;27;34593;-77
2022/07/17 12:56:08;;;;;;;1.52;0.63;;;34.70;1.00;;;;;;5032614;28;34534;-77
2022/07/17 12:58:36;;;;;;;1.40;0.70;;;34.90;1.00;;;;;;5012753;28;34727;-77
2022/07/17 13:01:02;;;;;;;0.95;0.60;;;35.00;1.00;;;;;;5023807;27;34084;-76
2022/07/17 13:03:28;;;;;;;0.88;0.57;;;35.00;1.00;;;;;;5019192;28;34484;-76
2022/07/17 13:05:54;;;;;;;0.50;0.50;;;34.80;1.00;;;;;;5021870;27;36234;-76
2022/07/17 13:08:21;;;;;;;1.83;0.45;;;34.50;1.00;;;;;;5047316;27;35347;-77
2022/07/17 13:10:48;;;;;;;0.77;0.70;;;34.40;1.00;;;;;;5046984;28;34159;-75
2022/07/17 13:13:14;;;;;;;2.22;0.90;;;34.40;1.00;;;;;;5028854;28;34249;-75
2022/07/17 13:15:40;;;;;;;1.58;0.80;;;34.40;1.00;;;;;;5040035;28;34563;-77
2022/07/17 13:18:06;;;;;;;0.75;0.50;;;34.40;1.00;;;;;;5033528;28;34379;-77
2022/07/17 13:20:32;;;;;;;0.77;0.47;;;34.50;1.00;;;;;;5014060;28;34487;-76
2022/07/17 13:22:58;;;;;;;1.00;0.60;;;34.60;1.00;;;;;;5005819;28;34344;-80
2022/07/17 13:25:24;;;;;;;1.42;0.77;;;34.70;1.00;;;;;;5017279;28;35802;-76
2022/07/17 13:27:51;;;;;;;0.57;0.55;;;34.70;1.00;;;;;;5029481;27;34509;-77
2022/07/17 13:30:35;;;;;;;0.82;0.63;;;34.70;1.00;;;;;;5017147;28;34722;-77
2022/07/17 13:33:02;;;;;;;2.38;0.60;;;34.60;1.00;;;;;;5018842;28;34267;-76